sensor_id;sensor_type;location;lat;lon;timestamp;P1;durP1;ratioP1;P2;durP2;ratioP2
54125;SDS011;40360;52.992;6.796;2023-04-21T00:00:06;26.40;;;20.00;;
54125;SDS011;40360;52.992;6.796;2023-04-21T00:02:34;23.13;;;18.83;;
54125;SDS011;40360;52.992;6.796;2023-04-21T00:05:04;27.40;;;18.77;;
54125;SDS011;40360;52.992;6.796;2023-04-21T00:07:33;27.10;;;19.05;;
54125;SDS011;40360;52.992;6.796;2023-04-21T00:09:59;23.13;;;17.60;;
54125;SDS011;40360;52.992;6.796;2023-04-21T00:12:24;24.58;;;18.63;;
54125;SDS011;40360;52.992;6.796;2023-04-21T00:14:50;26.80;;;18.33;;
54125;SDS011;40360;52.992;6.796;2023-04-21T00:17:15;22.30;;;17.60;;
54125;SDS011;40360;52.992;6.796;2023-04-21T00:19:41;24.35;;;17.13;;
54125;SDS011;40360;52.992;6.796;2023-04-21T00:22:07;24.88;;;18.00;;
54125;SDS011;40360;52.992;6.796;2023-04-21T00:24:36;24.42;;;17.63;;
54125;SDS011;40360;52.992;6.796;2023-04-21T00:27:01;23.45;;;16.83;;
54125;SDS011;40360;52.992;6.796;2023-04-21T00:29:27;22.92;;;17.45;;
54125;SDS011;40360;52.992;6.796;2023-04-21T00:31:53;22.13;;;15.82;;
54125;SDS011;40360;52.992;6.796;2023-04-21T00:34:18;22.58;;;16.05;;
54125;SDS011;40360;52.992;6.796;2023-04-21T00:36:44;26.50;;;17.08;;
54125;SDS011;40360;52.992;6.796;2023-04-21T00:39:10;22.75;;;15.60;;
54125;SDS011;40360;52.992;6.796;2023-04-21T00:41:35;26.40;;;16.42;;
54125;SDS011;40360;52.992;6.796;2023-04-21T00:44:06;24.33;;;16.65;;
54125;SDS011;40360;52.992;6.796;2023-04-21T00:46:33;21.52;;;15.70;;
54125;SDS011;40360;52.992;6.796;2023-04-21T00:49:01;23.00;;;15.95;;
54125;SDS011;40360;52.992;6.796;2023-04-21T00:51:28;25.83;;;16.60;;
54125;SDS011;40360;52.992;6.796;2023-04-21T00:53:57;21.67;;;15.48;;
54125;SDS011;40360;52.992;6.796;2023-04-21T00:56:24;23.17;;;15.80;;
54125;SDS011;40360;52.992;6.796;2023-04-21T00:58:50;21.17;;;16.02;;
54125;SDS011;40360;52.992;6.796;2023-04-21T01:01:17;20.83;;;15.55;;
54125;SDS011;40360;52.992;6.796;2023-04-21T01:03:43;22.80;;;15.75;;
54125;SDS011;40360;52.992;6.796;2023-04-21T01:06:11;19.92;;;14.40;;
54125;SDS011;40360;52.992;6.796;2023-04-21T01:08:37;25.23;;;17.48;;
54125;SDS011;40360;52.992;6.796;2023-04-21T01:11:12;22.92;;;15.93;;
54125;SDS011;40360;52.992;6.796;2023-04-21T01:13:38;21.07;;;14.40;;
54125;SDS011;40360;52.992;6.796;2023-04-21T01:16:04;20.48;;;15.00;;
54125;SDS011;40360;52.992;6.796;2023-04-21T01:18:30;22.48;;;15.95;;
54125;SDS011;40360;52.992;6.796;2023-04-21T01:20:56;23.52;;;15.27;;
54125;SDS011;40360;52.992;6.796;2023-04-21T01:23:23;22.63;;;15.93;;
54125;SDS011;40360;52.992;6.796;2023-04-21T01:25:49;24.80;;;15.88;;
54125;SDS011;40360;52.992;6.796;2023-04-21T01:28:20;26.30;;;16.08;;
54125;SDS011;40360;52.992;6.796;2023-04-21T01:30:49;22.83;;;14.57;;
54125;SDS011;40360;52.992;6.796;2023-04-21T01:33:15;24.98;;;15.15;;
54125;SDS011;40360;52.992;6.796;2023-04-21T01:35:41;19.70;;;14.13;;
54125;SDS011;40360;52.992;6.796;2023-04-21T01:38:07;22.92;;;14.80;;
54125;SDS011;40360;52.992;6.796;2023-04-21T01:40:32;18.27;;;15.15;;
54125;SDS011;40360;52.992;6.796;2023-04-21T01:42:58;20.13;;;15.35;;
54125;SDS011;40360;52.992;6.796;2023-04-21T01:45:24;21.63;;;15.50;;
54125;SDS011;40360;52.992;6.796;2023-04-21T01:47:49;24.50;;;14.90;;
54125;SDS011;40360;52.992;6.796;2023-04-21T01:50:15;20.67;;;14.32;;
54125;SDS011;40360;52.992;6.796;2023-04-21T01:52:41;17.83;;;14.43;;
54125;SDS011;40360;52.992;6.796;2023-04-21T01:55:06;19.27;;;14.32;;
54125;SDS011;40360;52.992;6.796;2023-04-21T01:57:32;22.73;;;14.25;;
54125;SDS011;40360;52.992;6.796;2023-04-21T01:59:58;18.23;;;14.77;;
54125;SDS011;40360;52.992;6.796;2023-04-21T02:02:23;22.27;;;15.48;;
54125;SDS011;40360;52.992;6.796;2023-04-21T02:04:49;22.92;;;16.23;;
54125;SDS011;40360;52.992;6.796;2023-04-21T02:07:15;20.92;;;15.23;;
54125;SDS011;40360;52.992;6.796;2023-04-21T02:09:40;19.58;;;14.82;;
54125;SDS011;40360;52.992;6.796;2023-04-21T02:12:06;18.73;;;14.60;;
54125;SDS011;40360;52.992;6.796;2023-04-21T02:14:32;18.67;;;14.52;;
54125;SDS011;40360;52.992;6.796;2023-04-21T02:16:57;19.70;;;14.50;;
54125;SDS011;40360;52.992;6.796;2023-04-21T02:19:23;19.27;;;14.50;;
54125;SDS011;40360;52.992;6.796;2023-04-21T02:21:49;22.85;;;15.27;;
54125;SDS011;40360;52.992;6.796;2023-04-21T02:24:15;19.38;;;14.88;;
54125;SDS011;40360;52.992;6.796;2023-04-21T02:26:40;21.80;;;14.23;;
54125;SDS011;40360;52.992;6.796;2023-04-21T02:29:06;25.33;;;15.63;;
54125;SDS011;40360;52.992;6.796;2023-04-21T02:31:31;21.98;;;14.48;;
54125;SDS011;40360;52.992;6.796;2023-04-21T02:33:57;19.83;;;14.80;;
54125;SDS011;40360;52.992;6.796;2023-04-21T02:36:23;22.38;;;15.57;;
54125;SDS011;40360;52.992;6.796;2023-04-21T02:38:49;20.70;;;14.27;;
54125;SDS011;40360;52.992;6.796;2023-04-21T02:41:15;21.45;;;14.77;;
54125;SDS011;40360;52.992;6.796;2023-04-21T02:43:40;19.00;;;14.60;;
54125;SDS011;40360;52.992;6.796;2023-04-21T02:46:06;24.65;;;16.20;;
54125;SDS011;40360;52.992;6.796;2023-04-21T02:48:32;22.15;;;14.05;;
54125;SDS011;40360;52.992;6.796;2023-04-21T02:51:01;20.27;;;15.63;;
54125;SDS011;40360;52.992;6.796;2023-04-21T02:53:28;22.38;;;15.80;;
54125;SDS011;40360;52.992;6.796;2023-04-21T02:55:54;23.40;;;15.45;;
54125;SDS011;40360;52.992;6.796;2023-04-21T02:58:20;26.08;;;17.20;;
54125;SDS011;40360;52.992;6.796;2023-04-21T03:00:46;24.38;;;16.77;;
54125;SDS011;40360;52.992;6.796;2023-04-21T03:03:12;24.92;;;15.68;;
54125;SDS011;40360;52.992;6.796;2023-04-21T03:05:40;23.45;;;17.65;;
54125;SDS011;40360;52.992;6.796;2023-04-21T03:08:05;22.05;;;14.82;;
54125;SDS011;40360;52.992;6.796;2023-04-21T03:10:31;23.52;;;16.00;;
54125;SDS011;40360;52.992;6.796;2023-04-21T03:12:56;21.67;;;15.15;;
54125;SDS011;40360;52.992;6.796;2023-04-21T03:15:22;22.08;;;16.25;;
54125;SDS011;40360;52.992;6.796;2023-04-21T03:17:48;22.20;;;15.68;;
54125;SDS011;40360;52.992;6.796;2023-04-21T03:20:13;23.38;;;15.85;;
54125;SDS011;40360;52.992;6.796;2023-04-21T03:22:40;25.83;;;18.33;;
54125;SDS011;40360;52.992;6.796;2023-04-21T03:25:05;26.55;;;17.63;;
54125;SDS011;40360;52.992;6.796;2023-04-21T03:27:31;24.30;;;17.30;;
54125;SDS011;40360;52.992;6.796;2023-04-21T03:29:58;21.65;;;16.30;;
54125;SDS011;40360;52.992;6.796;2023-04-21T03:32:24;24.58;;;17.05;;
54125;SDS011;40360;52.992;6.796;2023-04-21T03:34:49;24.13;;;16.40;;
54125;SDS011;40360;52.992;6.796;2023-04-21T03:37:18;26.55;;;16.58;;
54125;SDS011;40360;52.992;6.796;2023-04-21T03:39:44;23.52;;;17.00;;
54125;SDS011;40360;52.992;6.796;2023-04-21T03:42:09;23.40;;;16.30;;
54125;SDS011;40360;52.992;6.796;2023-04-21T03:44:35;21.15;;;16.48;;
54125;SDS011;40360;52.992;6.796;2023-04-21T03:47:00;25.65;;;16.05;;
54125;SDS011;40360;52.992;6.796;2023-04-21T03:49:28;27.67;;;18.15;;
54125;SDS011;40360;52.992;6.796;2023-04-21T03:51:54;25.55;;;17.05;;
54125;SDS011;40360;52.992;6.796;2023-04-21T03:54:19;25.85;;;16.02;;
54125;SDS011;40360;52.992;6.796;2023-04-21T03:56:45;21.52;;;16.95;;
54125;SDS011;40360;52.992;6.796;2023-04-21T03:59:11;24.10;;;16.55;;
54125;SDS011;40360;52.992;6.796;2023-04-21T04:01:36;22.85;;;16.67;;
54125;SDS011;40360;52.992;6.796;2023-04-21T04:04:02;24.33;;;17.38;;
54125;SDS011;40360;52.992;6.796;2023-04-21T04:06:27;26.52;;;16.50;;
54125;SDS011;40360;52.992;6.796;2023-04-21T04:08:53;22.65;;;16.73;;
54125;SDS011;40360;52.992;6.796;2023-04-21T04:11:19;25.70;;;16.58;;
54125;SDS011;40360;52.992;6.796;2023-04-21T04:13:44;27.30;;;18.42;;
54125;SDS011;40360;52.992;6.796;2023-04-21T04:16:10;25.20;;;17.05;;
54125;SDS011;40360;52.992;6.796;2023-04-21T04:18:35;24.60;;;16.95;;
54125;SDS011;40360;52.992;6.796;2023-04-21T04:21:07;24.88;;;16.00;;
54125;SDS011;40360;52.992;6.796;2023-04-21T04:23:33;24.13;;;16.10;;
54125;SDS011;40360;52.992;6.796;2023-04-21T04:25:59;23.08;;;17.60;;
54125;SDS011;40360;52.992;6.796;2023-04-21T04:28:25;24.05;;;16.13;;
54125;SDS011;40360;52.992;6.796;2023-04-21T04:30:51;28.20;;;17.48;;
54125;SDS011;40360;52.992;6.796;2023-04-21T04:33:17;24.85;;;16.58;;
54125;SDS011;40360;52.992;6.796;2023-04-21T04:35:42;19.33;;;16.60;;
54125;SDS011;40360;52.992;6.796;2023-04-21T04:38:08;21.52;;;16.38;;
54125;SDS011;40360;52.992;6.796;2023-04-21T04:40:34;21.85;;;16.27;;
54125;SDS011;40360;52.992;6.796;2023-04-21T04:42:59;25.75;;;17.33;;
54125;SDS011;40360;52.992;6.796;2023-04-21T04:45:26;22.55;;;16.08;;
54125;SDS011;40360;52.992;6.796;2023-04-21T04:47:53;27.90;;;15.32;;
54125;SDS011;40360;52.992;6.796;2023-04-21T04:50:19;18.45;;;15.48;;
54125;SDS011;40360;52.992;6.796;2023-04-21T04:52:45;25.00;;;16.15;;
54125;SDS011;40360;52.992;6.796;2023-04-21T04:55:11;30.10;;;15.38;;
54125;SDS011;40360;52.992;6.796;2023-04-21T04:57:38;18.25;;;14.60;;
54125;SDS011;40360;52.992;6.796;2023-04-21T05:00:05;26.50;;;15.52;;
54125;SDS011;40360;52.992;6.796;2023-04-21T05:02:35;25.48;;;15.73;;
54125;SDS011;40360;52.992;6.796;2023-04-21T05:05:04;23.80;;;15.63;;
54125;SDS011;40360;52.992;6.796;2023-04-21T05:07:30;24.25;;;15.27;;
54125;SDS011;40360;52.992;6.796;2023-04-21T05:09:56;22.13;;;15.05;;
54125;SDS011;40360;52.992;6.796;2023-04-21T05:12:22;23.05;;;15.63;;
54125;SDS011;40360;52.992;6.796;2023-04-21T05:14:47;20.15;;;15.02;;
54125;SDS011;40360;52.992;6.796;2023-04-21T05:17:13;18.70;;;14.82;;
54125;SDS011;40360;52.992;6.796;2023-04-21T05:19:38;18.17;;;14.88;;
54125;SDS011;40360;52.992;6.796;2023-04-21T05:22:04;17.92;;;13.32;;
54125;SDS011;40360;52.992;6.796;2023-04-21T05:24:32;18.50;;;13.32;;
54125;SDS011;40360;52.992;6.796;2023-04-21T05:26:59;17.50;;;12.40;;
54125;SDS011;40360;52.992;6.796;2023-04-21T05:29:25;18.40;;;13.73;;
54125;SDS011;40360;52.992;6.796;2023-04-21T05:31:51;22.30;;;14.05;;
54125;SDS011;40360;52.992;6.796;2023-04-21T05:34:16;19.17;;;13.23;;
54125;SDS011;40360;52.992;6.796;2023-04-21T05:36:42;18.55;;;13.13;;
54125;SDS011;40360;52.992;6.796;2023-04-21T05:39:08;24.85;;;13.45;;
54125;SDS011;40360;52.992;6.796;2023-04-21T05:41:34;17.38;;;11.50;;
54125;SDS011;40360;52.992;6.796;2023-04-21T06:00:56;20.90;;;12.43;;
54125;SDS011;40360;52.992;6.796;2023-04-21T06:03:21;19.13;;;12.52;;
54125;SDS011;40360;52.992;6.796;2023-04-21T06:05:51;16.15;;;12.95;;
54125;SDS011;40360;52.992;6.796;2023-04-21T06:08:21;23.13;;;13.10;;
54125;SDS011;40360;52.992;6.796;2023-04-21T06:10:47;17.00;;;12.90;;
54125;SDS011;40360;52.992;6.796;2023-04-21T06:13:12;16.45;;;12.13;;
54125;SDS011;40360;52.992;6.796;2023-04-21T06:15:38;16.08;;;12.80;;
54125;SDS011;40360;52.992;6.796;2023-04-21T06:18:04;19.23;;;11.73;;
54125;SDS011;40360;52.992;6.796;2023-04-21T06:20:29;21.02;;;11.73;;
54125;SDS011;40360;52.992;6.796;2023-04-21T06:22:55;19.25;;;12.27;;
54125;SDS011;40360;52.992;6.796;2023-04-21T06:25:21;14.52;;;12.18;;
54125;SDS011;40360;52.992;6.796;2023-04-21T06:27:46;19.35;;;13.27;;
54125;SDS011;40360;52.992;6.796;2023-04-21T06:30:12;18.60;;;11.80;;
54125;SDS011;40360;52.992;6.796;2023-04-21T06:32:38;19.63;;;12.07;;
54125;SDS011;40360;52.992;6.796;2023-04-21T06:35:04;19.63;;;12.43;;
54125;SDS011;40360;52.992;6.796;2023-04-21T06:37:30;16.45;;;11.70;;
54125;SDS011;40360;52.992;6.796;2023-04-21T06:39:55;19.73;;;12.15;;
54125;SDS011;40360;52.992;6.796;2023-04-21T06:42:21;18.60;;;11.50;;
54125;SDS011;40360;52.992;6.796;2023-04-21T06:44:47;18.35;;;11.80;;
54125;SDS011;40360;52.992;6.796;2023-04-21T06:47:12;14.63;;;11.18;;
54125;SDS011;40360;52.992;6.796;2023-04-21T06:49:38;20.48;;;11.88;;
54125;SDS011;40360;52.992;6.796;2023-04-21T06:52:04;20.17;;;11.45;;
54125;SDS011;40360;52.992;6.796;2023-04-21T06:54:29;15.07;;;11.25;;
54125;SDS011;40360;52.992;6.796;2023-04-21T06:56:55;20.58;;;12.27;;
54125;SDS011;40360;52.992;6.796;2023-04-21T06:59:21;17.13;;;11.07;;
54125;SDS011;40360;52.992;6.796;2023-04-21T07:01:47;18.83;;;10.93;;
54125;SDS011;40360;52.992;6.796;2023-04-21T07:04:16;14.07;;;11.20;;
54125;SDS011;40360;52.992;6.796;2023-04-21T07:06:45;17.00;;;10.63;;
54125;SDS011;40360;52.992;6.796;2023-04-21T07:09:10;17.13;;;11.68;;
54125;SDS011;40360;52.992;6.796;2023-04-21T07:11:36;22.33;;;11.70;;
54125;SDS011;40360;52.992;6.796;2023-04-21T07:14:02;16.40;;;10.70;;
54125;SDS011;40360;52.992;6.796;2023-04-21T07:16:28;18.13;;;11.00;;
54125;SDS011;40360;52.992;6.796;2023-04-21T07:18:54;17.77;;;10.80;;
54125;SDS011;40360;52.992;6.796;2023-04-21T07:21:20;20.45;;;11.23;;
54125;SDS011;40360;52.992;6.796;2023-04-21T07:23:45;18.48;;;10.60;;
54125;SDS011;40360;52.992;6.796;2023-04-21T07:26:11;15.02;;;11.20;;
54125;SDS011;40360;52.992;6.796;2023-04-21T07:28:37;18.92;;;11.20;;
54125;SDS011;40360;52.992;6.796;2023-04-21T07:31:04;15.38;;;10.80;;
54125;SDS011;40360;52.992;6.796;2023-04-21T07:33:30;19.40;;;10.73;;
54125;SDS011;40360;52.992;6.796;2023-04-21T07:35:56;15.48;;;10.23;;
54125;SDS011;40360;52.992;6.796;2023-04-21T07:38:22;17.65;;;10.05;;
54125;SDS011;40360;52.992;6.796;2023-04-21T07:40:47;14.27;;;9.95;;
54125;SDS011;40360;52.992;6.796;2023-04-21T07:43:13;16.75;;;10.50;;
54125;SDS011;40360;52.992;6.796;2023-04-21T07:45:38;19.52;;;10.68;;
54125;SDS011;40360;52.992;6.796;2023-04-21T07:48:04;15.57;;;10.38;;
54125;SDS011;40360;52.992;6.796;2023-04-21T07:50:31;15.40;;;9.50;;
54125;SDS011;40360;52.992;6.796;2023-04-21T07:52:59;14.88;;;10.48;;
54125;SDS011;40360;52.992;6.796;2023-04-21T07:55:25;14.88;;;10.35;;
54125;SDS011;40360;52.992;6.796;2023-04-21T07:57:51;14.75;;;9.65;;
54125;SDS011;40360;52.992;6.796;2023-04-21T08:00:17;18.40;;;10.00;;
54125;SDS011;40360;52.992;6.796;2023-04-21T08:02:43;16.75;;;10.35;;
54125;SDS011;40360;52.992;6.796;2023-04-21T08:05:09;16.50;;;10.25;;
54125;SDS011;40360;52.992;6.796;2023-04-21T08:07:35;15.05;;;10.32;;
54125;SDS011;40360;52.992;6.796;2023-04-21T08:10:00;16.83;;;9.85;;
54125;SDS011;40360;52.992;6.796;2023-04-21T08:12:26;13.55;;;9.65;;
54125;SDS011;40360;52.992;6.796;2023-04-21T08:14:52;15.98;;;10.43;;
54125;SDS011;40360;52.992;6.796;2023-04-21T08:17:18;19.25;;;9.95;;
54125;SDS011;40360;52.992;6.796;2023-04-21T08:19:43;15.68;;;9.75;;
54125;SDS011;40360;52.992;6.796;2023-04-21T08:22:09;11.95;;;9.80;;
54125;SDS011;40360;52.992;6.796;2023-04-21T08:24:34;18.88;;;10.20;;
54125;SDS011;40360;52.992;6.796;2023-04-21T08:27:00;13.93;;;10.20;;
54125;SDS011;40360;52.992;6.796;2023-04-21T08:29:26;16.55;;;10.57;;
54125;SDS011;40360;52.992;6.796;2023-04-21T08:31:52;15.15;;;9.35;;
54125;SDS011;40360;52.992;6.796;2023-04-21T08:34:18;14.65;;;8.95;;
54125;SDS011;40360;52.992;6.796;2023-04-21T08:36:44;13.70;;;9.55;;
54125;SDS011;40360;52.992;6.796;2023-04-21T08:39:11;15.30;;;9.68;;
54125;SDS011;40360;52.992;6.796;2023-04-21T08:41:37;15.45;;;10.90;;
54125;SDS011;40360;52.992;6.796;2023-04-21T08:44:05;13.55;;;10.10;;
54125;SDS011;40360;52.992;6.796;2023-04-21T08:46:31;18.38;;;10.23;;
54125;SDS011;40360;52.992;6.796;2023-04-21T08:48:59;15.20;;;9.52;;
54125;SDS011;40360;52.992;6.796;2023-04-21T08:51:26;20.27;;;10.05;;
54125;SDS011;40360;52.992;6.796;2023-04-21T08:53:53;16.73;;;10.07;;
54125;SDS011;40360;52.992;6.796;2023-04-21T08:56:19;14.40;;;9.48;;
54125;SDS011;40360;52.992;6.796;2023-04-21T08:58:45;14.38;;;9.20;;
54125;SDS011;40360;52.992;6.796;2023-04-21T09:01:10;15.68;;;10.52;;
54125;SDS011;40360;52.992;6.796;2023-04-21T09:03:36;13.00;;;10.27;;
54125;SDS011;40360;52.992;6.796;2023-04-21T09:06:06;14.52;;;9.73;;
54125;SDS011;40360;52.992;6.796;2023-04-21T09:08:33;14.98;;;8.93;;
54125;SDS011;40360;52.992;6.796;2023-04-21T09:11:01;20.65;;;9.52;;
54125;SDS011;40360;52.992;6.796;2023-04-21T09:13:30;13.90;;;9.00;;
54125;SDS011;40360;52.992;6.796;2023-04-21T09:15:58;17.92;;;10.55;;
54125;SDS011;40360;52.992;6.796;2023-04-21T09:18:26;16.48;;;9.48;;
54125;SDS011;40360;52.992;6.796;2023-04-21T09:23:29;13.65;;;9.20;;
54125;SDS011;40360;52.992;6.796;2023-04-21T09:25:55;15.43;;;9.27;;
54125;SDS011;40360;52.992;6.796;2023-04-21T09:28:21;16.40;;;8.88;;
54125;SDS011;40360;52.992;6.796;2023-04-21T09:30:46;17.98;;;9.88;;
54125;SDS011;40360;52.992;6.796;2023-04-21T09:33:20;14.02;;;9.10;;
54125;SDS011;40360;52.992;6.796;2023-04-21T09:35:46;19.80;;;10.43;;
54125;SDS011;40360;52.992;6.796;2023-04-21T09:38:12;15.50;;;9.98;;
54125;SDS011;40360;52.992;6.796;2023-04-21T09:40:38;19.15;;;9.80;;
54125;SDS011;40360;52.992;6.796;2023-04-21T09:43:04;15.77;;;9.85;;
54125;SDS011;40360;52.992;6.796;2023-04-21T09:45:33;12.07;;;9.32;;
54125;SDS011;40360;52.992;6.796;2023-04-21T09:48:00;15.18;;;10.45;;
54125;SDS011;40360;52.992;6.796;2023-04-21T09:50:27;16.65;;;10.18;;
54125;SDS011;40360;52.992;6.796;2023-04-21T09:52:54;16.58;;;9.63;;
54125;SDS011;40360;52.992;6.796;2023-04-21T09:55:25;16.10;;;10.60;;
54125;SDS011;40360;52.992;6.796;2023-04-21T09:57:56;15.88;;;9.50;;
54125;SDS011;40360;52.992;6.796;2023-04-21T10:00:27;21.95;;;11.23;;
54125;SDS011;40360;52.992;6.796;2023-04-21T10:02:53;12.20;;;9.52;;
54125;SDS011;40360;52.992;6.796;2023-04-21T10:05:21;18.23;;;9.68;;
54125;SDS011;40360;52.992;6.796;2023-04-21T10:07:47;19.70;;;10.25;;
54125;SDS011;40360;52.992;6.796;2023-04-21T10:10:35;13.45;;;9.45;;
54125;SDS011;40360;52.992;6.796;2023-04-21T10:13:01;16.48;;;9.45;;
54125;SDS011;40360;52.992;6.796;2023-04-21T10:15:30;13.15;;;9.98;;
54125;SDS011;40360;52.992;6.796;2023-04-21T10:18:20;11.25;;;8.77;;
54125;SDS011;40360;52.992;6.796;2023-04-21T10:26:24;16.80;;;10.50;;
54125;SDS011;40360;52.992;6.796;2023-04-21T10:31:33;22.30;;;10.20;;
54125;SDS011;40360;52.992;6.796;2023-04-21T10:34:18;15.60;;;10.95;;
54125;SDS011;40360;52.992;6.796;2023-04-21T10:37:06;15.13;;;8.77;;
54125;SDS011;40360;52.992;6.796;2023-04-21T10:39:36;16.35;;;8.75;;
54125;SDS011;40360;52.992;6.796;2023-04-21T10:45:19;19.83;;;9.50;;
54125;SDS011;40360;52.992;6.796;2023-04-21T10:47:37;11.25;;;8.70;;
54125;SDS011;40360;52.992;6.796;2023-04-21T10:50:15;12.45;;;8.07;;
54125;SDS011;40360;52.992;6.796;2023-04-21T10:52:43;12.80;;;7.90;;
54125;SDS011;40360;52.992;6.796;2023-04-21T10:55:21;14.23;;;8.70;;
54125;SDS011;40360;52.992;6.796;2023-04-21T10:57:50;13.60;;;8.98;;
54125;SDS011;40360;52.992;6.796;2023-04-21T11:00:18;10.82;;;7.93;;
54125;SDS011;40360;52.992;6.796;2023-04-21T11:03:02;10.88;;;7.68;;
54125;SDS011;40360;52.992;6.796;2023-04-21T11:05:34;12.35;;;7.82;;
54125;SDS011;40360;52.992;6.796;2023-04-21T11:08:03;8.80;;;6.82;;
54125;SDS011;40360;52.992;6.796;2023-04-21T11:10:39;14.77;;;7.47;;
54125;SDS011;40360;52.992;6.796;2023-04-21T11:13:06;14.48;;;7.53;;
54125;SDS011;40360;52.992;6.796;2023-04-21T11:15:32;14.60;;;6.70;;
54125;SDS011;40360;52.992;6.796;2023-04-21T11:17:57;14.77;;;7.00;;
54125;SDS011;40360;52.992;6.796;2023-04-21T11:20:23;19.85;;;6.57;;
54125;SDS011;40360;52.992;6.796;2023-04-21T11:22:50;11.93;;;5.78;;
54125;SDS011;40360;52.992;6.796;2023-04-21T11:25:17;15.15;;;6.00;;
54125;SDS011;40360;52.992;6.796;2023-04-21T11:27:51;9.43;;;5.88;;
54125;SDS011;40360;52.992;6.796;2023-04-21T11:30:21;12.90;;;5.80;;
54125;SDS011;40360;52.992;6.796;2023-04-21T11:32:56;13.63;;;6.50;;
54125;SDS011;40360;52.992;6.796;2023-04-21T11:35:22;12.23;;;6.72;;
54125;SDS011;40360;52.992;6.796;2023-04-21T11:37:48;13.27;;;6.32;;
54125;SDS011;40360;52.992;6.796;2023-04-21T11:40:16;8.65;;;6.38;;
54125;SDS011;40360;52.992;6.796;2023-04-21T11:42:42;12.50;;;6.05;;
54125;SDS011;40360;52.992;6.796;2023-04-21T11:45:15;9.90;;;5.80;;
54125;SDS011;40360;52.992;6.796;2023-04-21T11:47:42;13.27;;;5.38;;
54125;SDS011;40360;52.992;6.796;2023-04-21T11:50:08;8.35;;;5.85;;
54125;SDS011;40360;52.992;6.796;2023-04-21T11:52:35;9.98;;;4.88;;
54125;SDS011;40360;52.992;6.796;2023-04-21T11:55:12;11.05;;;5.50;;
54125;SDS011;40360;52.992;6.796;2023-04-21T11:57:40;8.43;;;5.70;;
54125;SDS011;40360;52.992;6.796;2023-04-21T12:00:08;8.38;;;5.82;;
54125;SDS011;40360;52.992;6.796;2023-04-21T12:02:39;15.57;;;5.63;;
54125;SDS011;40360;52.992;6.796;2023-04-21T12:05:07;13.75;;;6.25;;
54125;SDS011;40360;52.992;6.796;2023-04-21T12:07:39;18.08;;;5.93;;
54125;SDS011;40360;52.992;6.796;2023-04-21T12:10:12;9.48;;;5.28;;
54125;SDS011;40360;52.992;6.796;2023-04-21T12:12:43;12.15;;;5.78;;
54125;SDS011;40360;52.992;6.796;2023-04-21T12:15:10;10.57;;;5.07;;
54125;SDS011;40360;52.992;6.796;2023-04-21T12:17:43;21.92;;;6.15;;
54125;SDS011;40360;52.992;6.796;2023-04-21T12:20:10;11.15;;;6.22;;
54125;SDS011;40360;52.992;6.796;2023-04-21T12:22:36;16.48;;;5.35;;
54125;SDS011;40360;52.992;6.796;2023-04-21T12:25:03;28.67;;;6.82;;
54125;SDS011;40360;52.992;6.796;2023-04-21T12:27:29;11.27;;;4.78;;
54125;SDS011;40360;52.992;6.796;2023-04-21T12:29:56;12.20;;;4.78;;
54125;SDS011;40360;52.992;6.796;2023-04-21T12:32:22;11.25;;;5.28;;
54125;SDS011;40360;52.992;6.796;2023-04-21T12:34:48;9.23;;;5.20;;
54125;SDS011;40360;52.992;6.796;2023-04-21T12:37:14;12.55;;;4.35;;
54125;SDS011;40360;52.992;6.796;2023-04-21T12:39:40;16.90;;;5.60;;
54125;SDS011;40360;52.992;6.796;2023-04-21T12:42:06;7.10;;;4.20;;
54125;SDS011;40360;52.992;6.796;2023-04-21T12:44:33;13.57;;;4.65;;
54125;SDS011;40360;52.992;6.796;2023-04-21T12:46:58;11.52;;;3.95;;
54125;SDS011;40360;52.992;6.796;2023-04-21T12:49:24;10.98;;;4.57;;
54125;SDS011;40360;52.992;6.796;2023-04-21T12:51:50;8.63;;;4.03;;
54125;SDS011;40360;52.992;6.796;2023-04-21T12:54:16;9.93;;;3.70;;
54125;SDS011;40360;52.992;6.796;2023-04-21T12:56:41;10.18;;;4.15;;
54125;SDS011;40360;52.992;6.796;2023-04-21T12:59:08;7.82;;;3.78;;
54125;SDS011;40360;52.992;6.796;2023-04-21T13:01:38;13.40;;;3.67;;
54125;SDS011;40360;52.992;6.796;2023-04-21T13:04:05;11.80;;;3.40;;
54125;SDS011;40360;52.992;6.796;2023-04-21T13:06:31;12.15;;;4.00;;
54125;SDS011;40360;52.992;6.796;2023-04-21T13:08:57;8.48;;;3.38;;
54125;SDS011;40360;52.992;6.796;2023-04-21T13:11:23;6.53;;;4.00;;
54125;SDS011;40360;52.992;6.796;2023-04-21T13:13:49;12.52;;;4.25;;
54125;SDS011;40360;52.992;6.796;2023-04-21T13:16:15;9.18;;;3.92;;
54125;SDS011;40360;52.992;6.796;2023-04-21T13:18:41;15.60;;;3.53;;
54125;SDS011;40360;52.992;6.796;2023-04-21T13:21:06;10.85;;;3.65;;
54125;SDS011;40360;52.992;6.796;2023-04-21T13:23:32;6.78;;;3.28;;
54125;SDS011;40360;52.992;6.796;2023-04-21T13:25:58;11.75;;;3.70;;
54125;SDS011;40360;52.992;6.796;2023-04-21T13:28:24;9.60;;;4.40;;
54125;SDS011;40360;52.992;6.796;2023-04-21T13:30:51;12.38;;;4.22;;
54125;SDS011;40360;52.992;6.796;2023-04-21T13:33:17;10.20;;;3.97;;
54125;SDS011;40360;52.992;6.796;2023-04-21T13:44:02;9.65;;;3.33;;
54125;SDS011;40360;52.992;6.796;2023-04-21T13:46:28;10.23;;;4.00;;
54125;SDS011;40360;52.992;6.796;2023-04-21T13:48:53;8.43;;;3.72;;
54125;SDS011;40360;52.992;6.796;2023-04-21T13:51:19;10.02;;;4.00;;
54125;SDS011;40360;52.992;6.796;2023-04-21T13:53:45;12.57;;;4.60;;
54125;SDS011;40360;52.992;6.796;2023-04-21T13:56:11;14.00;;;3.45;;
54125;SDS011;40360;52.992;6.796;2023-04-21T13:58:38;10.82;;;3.85;;
54125;SDS011;40360;52.992;6.796;2023-04-21T14:01:03;8.65;;;3.72;;
54125;SDS011;40360;52.992;6.796;2023-04-21T14:03:29;11.38;;;3.90;;
54125;SDS011;40360;52.992;6.796;2023-04-21T14:05:55;10.40;;;3.42;;
54125;SDS011;40360;52.992;6.796;2023-04-21T14:08:20;14.35;;;3.28;;
54125;SDS011;40360;52.992;6.796;2023-04-21T14:10:48;9.82;;;3.60;;
54125;SDS011;40360;52.992;6.796;2023-04-21T14:13:13;12.05;;;3.25;;
54125;SDS011;40360;52.992;6.796;2023-04-21T14:15:39;7.10;;;3.13;;
54125;SDS011;40360;52.992;6.796;2023-04-21T14:18:05;8.90;;;3.50;;
54125;SDS011;40360;52.992;6.796;2023-04-21T14:20:30;13.05;;;4.30;;
54125;SDS011;40360;52.992;6.796;2023-04-21T14:22:56;11.15;;;3.35;;
54125;SDS011;40360;52.992;6.796;2023-04-21T14:25:22;9.30;;;4.25;;
54125;SDS011;40360;52.992;6.796;2023-04-21T14:27:47;11.02;;;3.58;;
54125;SDS011;40360;52.992;6.796;2023-04-21T14:30:13;7.47;;;3.22;;
54125;SDS011;40360;52.992;6.796;2023-04-21T14:32:39;7.63;;;4.72;;
54125;SDS011;40360;52.992;6.796;2023-04-21T14:35:12;7.75;;;3.45;;
54125;SDS011;40360;52.992;6.796;2023-04-21T14:37:38;11.25;;;3.78;;
54125;SDS011;40360;52.992;6.796;2023-04-21T14:40:07;9.30;;;3.53;;
54125;SDS011;40360;52.992;6.796;2023-04-21T14:42:33;14.23;;;4.65;;
54125;SDS011;40360;52.992;6.796;2023-04-21T14:44:59;10.77;;;4.15;;
54125;SDS011;40360;52.992;6.796;2023-04-21T14:47:25;9.70;;;4.07;;
54125;SDS011;40360;52.992;6.796;2023-04-21T14:49:51;7.75;;;3.83;;
54125;SDS011;40360;52.992;6.796;2023-04-21T14:52:18;11.00;;;4.93;;
54125;SDS011;40360;52.992;6.796;2023-04-21T14:54:44;13.85;;;4.13;;
54125;SDS011;40360;52.992;6.796;2023-04-21T14:57:10;9.90;;;3.97;;
54125;SDS011;40360;52.992;6.796;2023-04-21T14:59:35;8.40;;;4.05;;
54125;SDS011;40360;52.992;6.796;2023-04-21T15:02:01;11.73;;;4.28;;
54125;SDS011;40360;52.992;6.796;2023-04-21T15:04:28;8.45;;;4.30;;